createdAt,value
2023-11-07T00:00:08.697Z,100925.63
2023-11-07T00:02:36.945Z,100944.00
2023-11-07T00:05:05.007Z,100955.47
2023-11-07T00:07:32.523Z,100944.22
2023-11-07T00:09:59.636Z,100954.81
2023-11-07T00:12:27.141Z,100948.75
2023-11-07T00:14:54.329Z,100954.97
2023-11-07T00:17:22.493Z,100939.34
2023-11-07T00:19:49.976Z,100938.50
2023-11-07T00:22:17.363Z,100939.38
2023-11-07T00:24:45.033Z,100934.88
2023-11-07T00:27:12.479Z,100933.09
2023-11-07T00:29:39.585Z,100947.25
2023-11-07T00:32:07.852Z,100948.09
2023-11-07T00:34:35.065Z,100955.06
2023-11-07T00:37:02.504Z,100963.00
2023-11-07T00:39:29.536Z,100959.50
2023-11-07T00:41:57.883Z,100953.41
2023-11-07T00:44:25.361Z,100955.22
2023-11-07T00:46:52.745Z,100950.09
2023-11-07T00:49:19.856Z,100952.03
2023-11-07T00:51:48.320Z,100967.03
2023-11-07T00:54:15.523Z,100962.69
2023-11-07T00:56:43.053Z,100950.66
2023-11-07T00:59:10.115Z,100976.00
2023-11-07T01:01:38.073Z,100973.44
2023-11-07T01:04:05.443Z,100973.44
2023-11-07T01:06:33.688Z,100968.19
2023-11-07T01:09:01.513Z,100961.44
2023-11-07T01:11:28.955Z,100986.97
2023-11-07T01:13:56.030Z,100991.44
2023-11-07T01:16:23.550Z,100967.91
2023-11-07T01:18:50.810Z,100984.56
2023-11-07T01:21:18.557Z,100988.13
2023-11-07T01:23:45.752Z,100996.91
2023-11-07T01:26:14.133Z,101003.97
2023-11-07T01:28:41.228Z,100998.72
2023-11-07T01:31:08.564Z,101004.00
2023-11-07T01:33:40.981Z,100995.25
2023-11-07T01:36:16.284Z,100995.22
2023-11-07T01:38:52.635Z,101010.19
2023-11-07T01:41:30.764Z,100993.66
2023-11-07T01:46:47.239Z,101020.69
2023-11-07T01:49:26.790Z,100998.78
2023-11-07T01:52:01.131Z,101010.09
2023-11-07T01:54:35.763Z,101022.44
2023-11-07T01:57:05.614Z,101018.94
2023-11-07T02:00:01.676Z,100997.03
2023-11-07T02:02:41.291Z,101008.53
2023-11-07T02:05:22.564Z,101002.56
2023-11-07T02:08:12.369Z,101022.66
2023-11-07T02:10:41.868Z,101011.34
2023-11-07T02:13:14.516Z,101023.69
2023-11-07T02:15:49.598Z,101011.44
2023-11-07T02:18:17.772Z,101027.97
2023-11-07T02:20:48.097Z,101027.03
2023-11-07T02:23:31.804Z,101032.25
2023-11-07T02:25:59.662Z,101019.09
2023-11-07T02:28:34.768Z,101030.44
2023-11-07T02:31:05.812Z,101027.84
2023-11-07T02:33:39.976Z,101032.22
2023-11-07T02:36:09.096Z,101046.28
2023-11-07T02:38:40.915Z,101050.81
2023-11-07T02:41:12.941Z,101046.56
2023-11-07T02:43:47.032Z,101053.59
2023-11-07T02:46:19.725Z,101038.94
2023-11-07T02:48:55.667Z,101069.53
2023-11-07T02:51:24.447Z,101065.19
2023-11-07T02:53:52.609Z,101070.50
2023-11-07T02:56:29.498Z,101073.09
2023-11-07T02:59:03.924Z,101084.63
2023-11-07T03:01:36.229Z,101086.47
2023-11-07T03:04:04.415Z,101082.94
2023-11-07T03:06:34.648Z,101080.31
2023-11-07T03:09:10.139Z,101071.81
2023-11-07T03:11:38.021Z,101090.22
2023-11-07T03:14:07.410Z,101083.22
2023-11-07T03:17:03.691Z,101083.22
2023-11-07T03:19:35.069Z,101091.13
2023-11-07T03:24:48.796Z,101087.69
2023-11-07T03:30:12.236Z,101087.69
2023-11-07T03:32:49.534Z,101077.31
2023-11-07T03:35:19.595Z,101088.75
2023-11-07T03:37:50.969Z,101094.03
2023-11-07T03:43:08.682Z,101101.06
2023-11-07T03:45:43.279Z,101094.19
2023-11-07T03:48:26.041Z,101112.56
2023-11-07T03:51:00.850Z,101107.31
2023-11-07T03:53:33.040Z,101101.22
2023-11-07T03:56:34.533Z,101106.44
2023-11-07T03:59:04.785Z,101112.56
2023-11-07T04:01:40.908Z,101123.06
2023-11-07T04:04:10.877Z,101120.41
2023-11-07T04:06:41.120Z,101116.00
2023-11-07T04:09:11.083Z,101124.75
2023-11-07T04:11:45.114Z,101123.91
2023-11-07T04:14:14.058Z,101127.41
2023-11-07T04:16:43.083Z,101130.09
2023-11-07T04:19:13.215Z,101138.84
2023-11-07T04:21:45.166Z,101131.00
2023-11-07T04:24:14.368Z,101133.63
2023-11-07T04:26:45.276Z,101139.75
2023-11-07T04:29:21.470Z,101128.38
2023-11-07T04:31:52.181Z,101138.03
2023-11-07T04:34:21.032Z,101135.41
2023-11-07T04:36:58.525Z,101127.56
2023-11-07T04:39:26.717Z,101139.91
2023-11-07T04:41:55.205Z,101148.69
2023-11-07T04:44:22.765Z,101145.22
2023-11-07T04:46:54.404Z,101151.34
2023-11-07T04:49:31.604Z,101159.25
2023-11-07T04:52:05.660Z,101158.34
2023-11-07T04:54:34.665Z,101164.47
2023-11-07T04:57:03.239Z,101168.88
2023-11-07T04:59:34.252Z,101170.63
2023-11-07T05:02:30.273Z,101168.88
2023-11-07T05:05:02.652Z,101169.81
2023-11-07T05:07:36.268Z,101180.31
2023-11-07T05:10:11.598Z,101169.78
2023-11-07T05:13:07.306Z,101180.31
2023-11-07T05:18:48.582Z,101192.56
2023-11-07T05:21:19.257Z,101198.72
2023-11-07T05:24:10.266Z,101196.06
2023-11-07T05:29:55.498Z,101196.88
2023-11-07T05:32:58.406Z,101206.50
2023-11-07T05:36:24.203Z,101213.47
2023-11-07T05:39:08.380Z,101217.84
2023-11-07T05:42:16.557Z,101219.56
2023-11-07T05:45:14.369Z,101224.78
2023-11-07T05:49:11.664Z,101218.59
2023-11-07T05:52:02.634Z,101223.00
2023-11-07T05:55:22.687Z,101224.72
2023-11-07T05:57:59.323Z,101233.50
2023-11-07T06:00:36.300Z,101233.50
2023-11-07T06:04:04.064Z,101237.84
2023-11-07T06:07:32.152Z,101237.75
2023-11-07T06:10:59.351Z,101233.31
2023-11-07T06:14:07.067Z,101242.84
2023-11-07T06:17:23.313Z,101248.03
2023-11-07T06:23:16.968Z,101253.16
2023-11-07T06:26:11.831Z,101250.41
2023-11-07T06:34:01.350Z,101256.28
2023-11-07T06:37:31.579Z,101257.06
2023-11-07T06:40:19.333Z,101257.84
2023-11-07T06:42:48.355Z,101257.69
2023-11-07T06:45:16.428Z,101266.41
2023-11-07T06:47:45.367Z,101262.72
2023-11-07T06:50:14.935Z,101259.16
2023-11-07T06:52:53.758Z,101227.59
2023-11-07T06:55:29.412Z,101262.44
2023-11-07T06:57:57.944Z,101279.81
2023-11-07T07:00:30.764Z,101271.78
2023-11-07T07:03:00.188Z,101274.28
2023-11-07T07:05:28.684Z,101259.28
2023-11-07T07:07:56.926Z,101270.53
2023-11-07T07:10:25.122Z,101272.94
2023-11-07T07:12:52.743Z,101274.53
2023-11-07T07:15:19.953Z,101267.31
2023-11-07T07:17:48.028Z,101278.63
2023-11-07T07:20:15.366Z,101254.91
2023-11-07T07:22:43.744Z,101280.97
2023-11-07T07:25:16.978Z,101275.44
2023-11-07T07:27:48.631Z,101280.56
2023-11-07T07:30:23.561Z,101262.88
2023-11-07T07:32:52.492Z,101280.09
2023-11-07T07:35:23.718Z,101272.06
2023-11-07T07:37:53.826Z,101285.84
2023-11-07T07:40:27.660Z,101277.75
2023-11-07T07:43:11.226Z,101271.34
2023-11-07T07:45:42.192Z,101276.34
2023-11-07T07:48:16.660Z,101279.66
2023-11-07T07:50:48.060Z,101275.78
2023-11-07T07:53:18.525Z,101271.16
2023-11-07T07:55:46.042Z,101269.97
2023-11-07T07:58:20.557Z,101267.91
2023-11-07T08:00:51.076Z,101277.22
2023-11-07T08:03:20.447Z,101281.28
2023-11-07T08:05:51.921Z,101272.91
2023-11-07T08:08:19.687Z,101288.38
2023-11-07T08:10:50.184Z,101281.81
2023-11-07T08:13:22.548Z,101280.56
2023-11-07T08:15:51.483Z,101288.13
2023-11-07T08:18:20.830Z,101278.88
2023-11-07T08:20:48.254Z,101285.41
2023-11-07T08:23:15.941Z,101272.63
2023-11-07T08:25:44.342Z,101280.84
2023-11-07T08:28:12.756Z,101286.47
2023-11-07T08:30:40.161Z,101279.97
2023-11-07T08:33:09.664Z,101268.91
2023-11-07T08:35:38.163Z,101269.28
2023-11-07T08:38:06.277Z,101271.44
2023-11-07T08:40:33.448Z,101266.56
2023-11-07T08:43:01.279Z,101262.59
2023-11-07T08:45:36.030Z,101267.31
2023-11-07T08:48:04.923Z,101268.53
2023-11-07T08:50:42.720Z,101266.34
2023-11-07T08:53:11.349Z,101275.50
2023-11-07T08:55:39.329Z,101272.31
2023-11-07T08:58:07.054Z,101273.47
2023-11-07T09:00:36.064Z,101264.91
2023-11-07T09:03:10.192Z,101266.00
2023-11-07T09:05:39.400Z,101263.41
2023-11-07T09:08:07.597Z,101259.81
2023-11-07T09:10:36.776Z,101261.56
2023-11-07T09:13:05.797Z,101264.75
2023-11-07T09:15:53.617Z,101258.47
2023-11-07T09:19:33.989Z,101241.50
2023-11-07T09:23:12.400Z,101244.31
2023-11-07T09:26:42.790Z,101250.78
2023-11-07T09:29:36.346Z,101233.31
2023-11-07T09:32:43.701Z,101238.81
2023-11-07T09:35:44.916Z,101229.84
2023-11-07T09:41:48.702Z,101211.78
2023-11-07T09:44:45.517Z,101209.28
2023-11-07T09:47:43.973Z,101199.84
2023-11-07T09:51:29.758Z,101199.09
2023-11-07T09:54:39.192Z,101194.06
2023-11-07T09:57:24.284Z,101190.66
2023-11-07T10:04:44.539Z,101196.59
2023-11-07T10:16:50.315Z,101181.91
2023-11-07T10:33:58.665Z,101165.41
2023-11-07T10:54:41.538Z,101145.41
2023-11-07T10:57:55.979Z,101148.03
2023-11-07T11:01:40.281Z,101141.91
2023-11-07T11:04:27.334Z,101138.69
2023-11-07T11:07:39.862Z,101140.84
2023-11-07T11:14:25.104Z,101138.63
2023-11-07T11:21:00.810Z,101130.09
2023-11-07T11:24:30.285Z,101131.56
2023-11-07T11:28:05.267Z,101127.97
2023-11-07T11:30:55.646Z,101122.34
2023-11-07T11:34:31.244Z,101126.00
2023-11-07T11:46:54.469Z,101109.75
2023-11-07T11:50:13.245Z,101098.03
2023-11-07T11:53:41.520Z,101092.44
2023-11-07T11:57:29.381Z,101091.75
2023-11-07T12:00:23.882Z,101105.94
2023-11-07T12:03:29.780Z,101097.38
2023-11-07T12:06:28.205Z,101093.66
2023-11-07T12:09:34.394Z,101092.38
2023-11-07T12:12:41.096Z,101095.59
2023-11-07T12:15:38.087Z,101093.69
2023-11-07T12:18:52.762Z,101104.25
2023-11-07T12:21:56.696Z,101091.66
2023-11-07T12:29:09.141Z,101100.88
2023-11-07T12:32:57.245Z,101093.38
2023-11-07T12:35:47.365Z,101083.19
2023-11-07T12:43:29.036Z,101100.22
2023-11-07T12:47:09.197Z,101078.63
2023-11-07T12:50:49.859Z,101086.13
2023-11-07T12:54:49.799Z,101086.22
2023-11-07T12:58:14.104Z,101085.47
2023-11-07T13:01:49.117Z,101091.13
2023-11-07T13:05:46.023Z,101090.13
2023-11-07T13:09:33.398Z,101079.84
2023-11-07T13:12:42.895Z,101089.34
2023-11-07T13:15:24.579Z,101086.19
2023-11-07T13:18:26.221Z,101101.34
2023-11-07T13:21:26.613Z,101084.56
2023-11-07T13:25:17.161Z,101093.19
2023-11-07T13:32:00.342Z,101078.41
2023-11-07T13:34:51.642Z,101088.97
2023-11-07T13:37:22.169Z,101087.22
2023-11-07T13:39:55.422Z,101083.00
2023-11-07T13:42:42.751Z,101089.38
2023-11-07T13:48:56.934Z,101081.59
2023-11-07T13:51:43.205Z,101072.84
2023-11-07T13:54:49.381Z,101069.41
2023-11-07T13:58:26.223Z,101068.78
2023-11-07T14:01:25.769Z,101057.09
2023-11-07T14:04:26.119Z,101060.03
2023-11-07T14:07:20.526Z,101054.34
2023-11-07T14:09:49.092Z,101060.19
2023-11-07T14:12:16.672Z,101072.75
2023-11-07T14:14:44.011Z,101070.53
2023-11-07T14:17:11.542Z,101063.97
2023-11-07T14:19:38.785Z,101066.09
2023-11-07T14:22:08.283Z,101064.72
2023-11-07T14:24:37.194Z,101065.06
2023-11-07T14:27:09.277Z,101066.50
2023-11-07T14:29:55.191Z,101060.59
2023-11-07T14:32:25.190Z,101062.00
2023-11-07T14:34:52.840Z,101055.22
2023-11-07T14:37:21.828Z,101053.88
2023-11-07T14:39:50.123Z,101050.94
2023-11-07T14:42:17.827Z,101048.69
2023-11-07T14:44:46.712Z,101051.78
2023-11-07T14:47:15.666Z,101052.41
2023-11-07T14:49:42.817Z,101046.75
2023-11-07T14:52:10.367Z,101052.47
2023-11-07T14:54:37.548Z,101055.75
2023-11-07T14:57:07.555Z,101046.22
2023-11-07T14:59:34.995Z,101041.34
2023-11-07T15:02:04.114Z,101044.63
2023-11-07T15:04:35.655Z,101044.22
2023-11-07T15:07:03.227Z,101039.19
2023-11-07T15:09:33.224Z,101048.34
2023-11-07T15:12:01.335Z,101053.69
2023-11-07T15:14:29.881Z,101051.25
2023-11-07T15:16:59.168Z,101047.94
2023-11-07T15:19:26.425Z,101054.25
2023-11-07T15:21:54.248Z,101051.97
2023-11-07T15:24:24.138Z,101059.28
2023-11-07T15:26:53.098Z,101053.72
2023-11-07T15:29:30.552Z,101054.19
2023-11-07T15:31:58.010Z,101053.78
2023-11-07T15:34:26.163Z,101049.91
2023-11-07T15:36:56.765Z,101062.81
2023-11-07T15:39:25.837Z,101059.16
2023-11-07T15:41:53.429Z,101058.03
2023-11-07T15:44:21.378Z,101057.00
2023-11-07T15:46:48.961Z,101058.88
2023-11-07T15:49:17.393Z,101066.22
2023-11-07T15:51:45.197Z,101053.31
2023-11-07T15:54:15.192Z,101060.53
2023-11-07T15:56:48.441Z,101065.09
2023-11-07T15:59:16.263Z,101071.34
2023-11-07T16:01:45.710Z,101068.91
2023-11-07T16:04:49.989Z,101073.38
2023-11-07T16:07:59.858Z,101077.66
2023-11-07T16:10:29.082Z,101073.22
2023-11-07T16:13:13.874Z,101070.78
2023-11-07T16:15:42.301Z,101066.59
2023-11-07T16:18:14.055Z,101072.50
2023-11-07T16:20:44.095Z,101076.34
2023-11-07T16:23:11.863Z,101070.78
2023-11-07T16:25:38.962Z,101068.66
2023-11-07T16:28:06.728Z,101052.31
2023-11-07T16:30:34.142Z,101047.22
2023-11-07T16:33:03.060Z,101061.72
2023-11-07T16:35:31.560Z,101052.84
2023-11-07T16:37:59.148Z,101063.53
2023-11-07T16:40:29.117Z,101058.09
2023-11-07T16:42:56.804Z,101057.38
2023-11-07T16:45:24.529Z,101057.19
2023-11-07T16:47:52.566Z,101062.31
2023-11-07T16:50:22.058Z,101052.75
2023-11-07T16:52:51.378Z,101048.31
2023-11-07T16:55:20.070Z,101053.03
2023-11-07T16:57:49.110Z,101041.53
2023-11-07T17:00:19.970Z,101042.59
2023-11-07T17:02:49.151Z,101055.34
2023-11-07T17:05:18.689Z,101057.31
2023-11-07T17:07:46.849Z,101046.66
2023-11-07T17:10:17.137Z,101050.72
2023-11-07T17:12:48.474Z,101035.53
2023-11-07T17:15:15.790Z,101045.00
2023-11-07T17:17:49.440Z,101051.13
2023-11-07T17:20:16.690Z,101055.78
2023-11-07T17:22:45.186Z,101059.41
2023-11-07T17:25:14.695Z,101041.97
2023-11-07T17:27:45.169Z,101050.72
2023-11-07T17:30:13.260Z,101048.31
2023-11-07T17:32:40.934Z,101055.63
2023-11-07T17:35:08.545Z,101057.63
2023-11-07T17:37:38.756Z,101048.94
2023-11-07T17:40:07.882Z,101053.59
2023-11-07T17:42:35.508Z,101052.25
2023-11-07T17:45:08.337Z,101046.31
2023-11-07T17:47:36.215Z,101050.25
2023-11-07T17:50:03.653Z,101053.25
2023-11-07T17:52:39.089Z,101058.19
2023-11-07T17:55:07.424Z,101053.31
2023-11-07T17:57:35.030Z,101039.63
2023-11-07T18:00:05.096Z,101056.53
2023-11-07T18:02:32.764Z,101051.44
2023-11-07T18:04:59.983Z,101045.78
2023-11-07T18:07:29.949Z,101050.66
2023-11-07T18:09:57.243Z,101059.00
2023-11-07T18:12:24.899Z,101070.81
2023-11-07T18:14:53.286Z,101063.19
2023-11-07T18:17:21.634Z,101064.16
2023-11-07T18:19:53.951Z,101062.56
2023-11-07T18:22:27.947Z,101060.00
2023-11-07T18:24:57.210Z,101071.47
2023-11-07T18:27:25.474Z,101060.81
2023-11-07T18:29:52.710Z,101064.09
2023-11-07T18:32:23.167Z,101074.59
2023-11-07T18:34:52.569Z,101071.97
2023-11-07T18:37:21.182Z,101081.66
2023-11-07T18:39:50.449Z,101061.53
2023-11-07T18:42:19.480Z,101071.09
2023-11-07T18:44:47.557Z,101073.81
2023-11-07T18:47:17.846Z,101076.25
2023-11-07T18:49:45.204Z,101072.78
2023-11-07T19:00:01.672Z,101072.41
2023-11-07T19:02:45.424Z,101062.13
2023-11-07T19:05:15.091Z,101063.25
2023-11-07T19:07:42.638Z,101066.97
2023-11-07T19:10:10.285Z,101062.56
2023-11-07T19:12:40.263Z,101067.88
2023-11-07T19:15:09.352Z,101060.06
2023-11-07T19:17:36.893Z,101061.16
2023-11-07T19:20:05.341Z,101059.50
2023-11-07T19:22:34.310Z,101051.75
2023-11-07T19:25:01.723Z,101024.72
2023-11-07T19:27:29.659Z,101034.13
2023-11-07T19:30:00.495Z,101038.97
2023-11-07T19:32:29.399Z,101028.56
2023-11-07T19:35:09.588Z,101033.72
2023-11-07T19:37:38.953Z,101032.69
2023-11-07T19:40:22.741Z,101030.63
2023-11-07T19:42:52.526Z,101028.75
2023-11-07T19:48:51.649Z,101040.50
2023-11-07T19:51:45.994Z,101048.00
2023-11-07T19:59:01.064Z,101031.63
2023-11-07T20:01:53.915Z,101026.75
2023-11-07T20:04:39.290Z,101019.44
2023-11-07T20:07:55.953Z,101021.97
2023-11-07T20:11:32.194Z,101017.69
2023-11-07T20:14:38.381Z,101008.53
2023-11-07T20:18:08.458Z,101008.53
2023-11-07T20:28:29.905Z,100987.94
2023-11-07T20:31:56.878Z,100998.59
2023-11-07T20:34:36.149Z,100998.50
2023-11-07T20:37:29.839Z,100999.44
2023-11-07T20:40:16.279Z,100989.94
2023-11-07T20:43:06.124Z,100998.69
2023-11-07T20:46:33.784Z,100999.91
2023-11-07T20:53:18.698Z,100986.75
2023-11-07T20:59:42.693Z,100982.94
2023-11-07T21:02:30.777Z,100942.25
2023-11-07T21:05:00.281Z,100971.75
2023-11-07T21:07:27.831Z,100972.59
2023-11-07T21:09:55.568Z,100963.91
2023-11-07T21:12:23.038Z,100971.16
2023-11-07T21:14:53.785Z,100978.38
2023-11-07T21:17:32.127Z,100975.56
2023-11-07T21:20:07.816Z,100957.88
2023-11-07T21:25:37.939Z,100969.25
2023-11-07T21:28:11.199Z,100956.25
2023-11-07T21:33:27.674Z,100945.19
2023-11-07T21:35:59.386Z,100946.13
2023-11-07T21:38:27.277Z,100940.13
2023-11-07T21:40:54.437Z,100946.13
2023-11-07T21:43:21.977Z,100955.00
2023-11-07T21:45:49.057Z,100940.94
2023-11-07T21:48:17.251Z,100951.59
2023-11-07T21:50:44.790Z,100933.91
2023-11-07T21:53:25.660Z,100939.91
2023-11-07T21:55:55.023Z,100932.97
2023-11-07T21:58:22.958Z,100928.47
2023-11-07T22:00:50.111Z,100931.94
2023-11-07T22:03:17.763Z,100930.16
2023-11-07T22:05:52.591Z,100935.53
2023-11-07T22:08:23.358Z,100909.50
2023-11-07T22:10:53.056Z,100931.25
2023-11-07T22:13:23.449Z,100908.75
2023-11-07T22:15:52.167Z,100935.19
2023-11-07T22:18:20.169Z,100923.03
2023-11-07T22:20:47.725Z,100919.66
2023-11-07T22:23:15.500Z,100931.00
2023-11-07T22:25:42.548Z,100923.97
2023-11-07T22:28:10.628Z,100919.50
2023-11-07T22:30:38.799Z,100901.16
2023-11-07T22:33:06.797Z,100902.78
2023-11-07T22:35:35.727Z,100901.03
2023-11-07T22:38:06.152Z,100898.47
2023-11-07T22:40:33.242Z,100884.41
2023-11-07T22:43:01.474Z,100881.84
2023-11-07T22:45:28.757Z,100885.31
2023-11-07T22:47:56.523Z,100880.94
2023-11-07T22:50:24.949Z,100869.56
2023-11-07T22:52:52.492Z,100869.38
2023-11-07T22:55:19.617Z,100863.16
2023-11-07T22:57:48.504Z,100869.09
2023-11-07T23:00:28.844Z,100865.47
2023-11-07T23:03:01.176Z,100850.50
2023-11-07T23:05:31.669Z,100847.44
2023-11-07T23:08:09.895Z,100841.38
2023-11-07T23:10:41.546Z,100835.00
2023-11-07T23:13:20.691Z,100832.47
2023-11-07T23:15:50.140Z,100834.97
2023-11-07T23:18:21.356Z,100835.06
2023-11-07T23:20:53.663Z,100821.97
2023-11-07T23:23:21.899Z,100822.56
2023-11-07T23:25:50.458Z,100810.47
2023-11-07T23:28:21.440Z,100811.88
2023-11-07T23:33:33.976Z,100805.63
2023-11-07T23:36:07.590Z,100799.47
2023-11-07T23:38:39.340Z,100801.25
2023-11-07T23:41:06.925Z,100782.13
2023-11-07T23:43:36.834Z,100790.91
2023-11-07T23:46:04.631Z,100786.41
2023-11-07T23:48:34.640Z,100784.69
2023-11-07T23:51:02.171Z,100778.63
2023-11-07T23:53:32.490Z,100792.81
2023-11-07T23:56:00.308Z,100794.66
2023-11-07T23:58:28.960Z,100782.28
